Time;durP1;ratioP1;P1;durP2;ratioP2;P2;SDS_P1;SDS_P2;PMS_P1;PMS_P2;Temp;Humidity;BMP_temperature;BMP_pressure;BME280_temperature;BME280_humidity;BME280_pressure;Samples;Min_cycle;Max_cycle;Signal;HPM_P1;HPM_P2
2022/08/26 00:01:41;;;;;;;8.60;2.60;;;16.50;72.50;;;;;;5062246;28;20139;-74
2022/08/26 00:04:10;;;;;;;7.30;2.05;;;16.50;72.50;;;;;;5060473;28;20492;-73
2022/08/26 00:06:37;;;;;;;12.00;3.25;;;16.40;72.40;;;;;;5061804;28;20028;-74
2022/08/26 00:09:04;;;;;;;13.52;2.67;;;16.50;72.50;;;;;;5062391;28;20526;-73
2022/08/26 00:11:31;;;;;;;6.50;2.13;;;16.40;72.50;;;;;;5065335;28;20098;-73
2022/08/26 00:13:58;;;;;;;8.63;2.60;;;16.40;72.40;;;;;;5062549;28;20067;-73
2022/08/26 00:16:26;;;;;;;13.05;3.92;;;16.40;72.40;;;;;;5059678;28;20051;-73
2022/08/26 00:18:54;;;;;;;6.93;2.25;;;16.40;72.20;;;;;;5059494;28;20090;-72
2022/08/26 00:21:21;;;;;;;13.15;2.97;;;16.30;72.00;;;;;;5062573;28;20139;-72
2022/08/26 00:23:47;;;;;;;11.13;1.98;;;16.30;71.70;;;;;;5065560;28;20024;-73
2022/08/26 00:26:14;;;;;;;3.55;1.63;;;16.30;71.50;;;;;;5064519;28;20036;-71
2022/08/26 00:28:41;;;;;;;8.10;2.22;;;16.30;71.50;;;;;;5066016;28;20107;-71
2022/08/26 00:31:08;;;;;;;9.40;2.72;;;16.30;71.60;;;;;;5065848;28;20050;-72
2022/08/26 00:33:34;;;;;;;16.73;2.85;;;16.20;71.80;;;;;;5061149;28;20074;-73
2022/08/26 00:36:01;;;;;;;16.08;3.72;;;16.20;72.00;;;;;;5068657;28;20503;-73
2022/08/26 00:38:27;;;;;;;11.88;2.95;;;16.20;72.10;;;;;;5064006;28;20058;-73
2022/08/26 00:40:56;;;;;;;9.05;2.42;;;16.20;71.90;;;;;;5064233;28;20108;-73
2022/08/26 00:43:23;;;;;;;6.57;2.30;;;16.20;71.80;;;;;;5064073;28;20483;-72
2022/08/26 00:45:59;;;;;;;8.48;2.25;;;16.20;72.00;;;;;;5068185;28;20086;-73
2022/08/26 00:48:29;;;;;;;6.13;2.22;;;16.10;71.70;;;;;;5064826;28;20123;-72
2022/08/26 00:51:25;;;;;;;5.47;2.05;;;16.10;71.60;;;;;;5063213;28;20116;-73
2022/08/26 00:53:58;;;;;;;9.88;2.80;;;16.10;71.40;;;;;;5057685;28;20037;-71
2022/08/26 00:56:35;;;;;;;13.10;2.70;;;16.10;71.50;;;;;;5064622;28;20028;-73
2022/08/26 00:59:05;;;;;;;9.50;2.70;;;16.10;71.90;;;;;;5064512;28;20541;-72
2022/08/26 01:01:33;;;;;;;9.65;3.17;;;16.10;71.70;;;;;;5062928;28;20033;-72
2022/08/26 01:03:59;;;;;;;9.18;2.95;;;16.10;71.70;;;;;;5068453;28;20029;-72
2022/08/26 01:06:27;;;;;;;10.30;2.38;;;16.10;71.50;;;;;;5062947;28;20029;-72
2022/08/26 01:08:54;;;;;;;9.43;2.55;;;16.00;71.50;;;;;;5062777;28;20443;-72
2022/08/26 01:11:21;;;;;;;11.20;2.83;;;16.00;71.50;;;;;;5059933;28;20104;-72
2022/08/26 01:13:52;;;;;;;6.53;2.72;;;16.00;71.50;;;;;;5062712;28;20480;-73
2022/08/26 01:16:19;;;;;;;15.50;2.70;;;16.00;71.90;;;;;;5064631;28;20028;-72
2022/08/26 01:18:47;;;;;;;9.57;2.42;;;16.10;72.60;;;;;;5064098;28;20025;-72
2022/08/26 01:21:28;;;;;;;9.05;2.63;;;16.10;72.90;;;;;;5066479;28;20507;-72
2022/08/26 01:23:56;;;;;;;9.38;2.55;;;16.20;72.90;;;;;;5064760;28;20027;-71
2022/08/26 01:26:32;;;;;;;8.88;3.10;;;16.10;72.20;;;;;;5066826;28;20038;-72
2022/08/26 01:28:59;;;;;;;;;;;16.10;71.50;;;;;;5064346;28;20016;-73
2022/08/26 01:31:31;;;;;;;12.07;3.95;;;16.10;71.10;;;;;;5064341;28;19905;-73
2022/08/26 01:34:14;;;;;;;10.05;3.63;;;16.10;71.60;;;;;;5063249;28;20021;-71
2022/08/26 01:36:41;;;;;;;12.68;3.33;;;16.10;72.30;;;;;;5062744;28;20479;-73
2022/08/26 01:39:08;;;;;;;10.50;3.35;;;16.10;72.20;;;;;;5062095;28;20032;-73
2022/08/26 01:41:36;;;;;;;9.30;2.90;;;16.10;72.00;;;;;;5065613;28;20074;-72
2022/08/26 01:44:05;;;;;;;13.00;4.43;;;16.20;72.30;;;;;;5062686;28;20020;-73
2022/08/26 01:46:33;;;;;;;11.35;3.10;;;16.10;72.20;;;;;;5064921;28;20024;-72
2022/08/26 01:49:03;;;;;;;9.50;2.85;;;16.10;71.90;;;;;;5062083;28;20549;-73
2022/08/26 01:51:34;;;;;;;13.15;3.30;;;16.10;71.60;;;;;;5066789;28;20071;-73
2022/08/26 01:54:01;;;;;;;17.08;3.97;;;16.10;71.40;;;;;;5066335;28;20032;-72
2022/08/26 01:56:27;;;;;;;5.18;1.98;;;16.10;71.30;;;;;;5064896;28;20112;-72
2022/08/26 01:58:57;;;;;;;10.90;4.20;;;16.00;71.20;;;;;;5060783;28;20036;-73
2022/08/26 02:01:25;;;;;;;14.55;3.67;;;16.00;71.20;;;;;;5061651;28;20021;-72
2022/08/26 02:04:20;;;;;;;6.80;2.17;;;16.00;71.10;;;;;;5063952;28;20009;-73
2022/08/26 02:06:48;;;;;;;11.73;3.20;;;15.90;71.00;;;;;;5056018;28;20080;-73
2022/08/26 02:09:17;;;;;;;12.65;3.20;;;15.90;71.00;;;;;;5067150;28;20059;-73
2022/08/26 02:11:44;;;;;;;11.40;2.97;;;15.90;71.00;;;;;;5057961;28;20413;-72
2022/08/26 02:14:28;;;;;;;13.70;3.67;;;15.90;71.40;;;;;;5068552;28;20023;-73
2022/08/26 02:16:55;;;;;;;9.88;2.55;;;15.90;71.40;;;;;;5061238;28;20383;-74
2022/08/26 02:19:33;;;;;;;11.48;2.85;;;15.90;71.30;;;;;;5065475;28;20017;-73
2022/08/26 02:22:04;;;;;;;7.63;2.35;;;15.90;71.10;;;;;;5064683;28;20508;-75
2022/08/26 02:24:48;;;;;;;15.02;3.22;;;15.90;71.00;;;;;;5058950;28;20027;-74
2022/08/26 02:27:17;;;;;;;11.68;2.47;;;15.80;70.70;;;;;;5063218;28;20142;-74
2022/08/26 02:29:48;;;;;;;11.73;2.53;;;15.90;71.20;;;;;;5061128;28;20017;-72
2022/08/26 02:32:15;;;;;;;8.27;1.98;;;15.90;70.80;;;;;;5060987;28;20483;-74
2022/08/26 02:34:41;;;;;;;11.45;2.78;;;15.80;70.50;;;;;;5064726;28;20486;-74
2022/08/26 02:37:10;;;;;;;7.90;2.90;;;15.80;70.30;;;;;;5066435;28;20060;-73
2022/08/26 02:39:39;;;;;;;6.38;2.28;;;15.80;70.20;;;;;;5065292;28;20656;-74
2022/08/26 02:42:06;;;;;;;12.00;2.20;;;15.80;70.10;;;;;;5062840;28;20644;-74
2022/08/26 02:44:33;;;;;;;8.30;1.92;;;15.80;70.10;;;;;;5062079;28;20029;-74
2022/08/26 02:47:00;;;;;;;12.00;1.73;;;15.80;70.50;;;;;;5063706;28;20028;-72
2022/08/26 02:49:29;;;;;;;8.48;2.35;;;15.80;70.40;;;;;;5065499;28;20019;-71
2022/08/26 02:51:56;;;;;;;12.55;3.80;;;15.80;70.30;;;;;;5064850;28;20026;-73
2022/08/26 02:54:23;;;;;;;9.23;2.72;;;15.90;70.20;;;;;;5062283;28;20020;-72
2022/08/26 02:56:50;;;;;;;6.28;2.20;;;15.80;70.00;;;;;;5063980;28;20037;-72
2022/08/26 02:59:17;;;;;;;10.25;3.05;;;15.80;70.50;;;;;;5063678;28;20024;-72
2022/08/26 03:01:48;;;;;;;11.70;1.83;;;15.80;70.00;;;;;;5063325;28;20017;-72
2022/08/26 03:04:14;;;;;;;13.50;2.90;;;15.80;69.90;;;;;;5059620;28;20070;-73
2022/08/26 03:06:41;;;;;;;41.42;4.47;;;15.80;70.20;;;;;;5060097;28;20044;-73
2022/08/26 03:09:08;;;;;;;7.30;2.67;;;15.80;70.30;;;;;;5064441;28;20074;-75
2022/08/26 03:11:35;;;;;;;53.92;36.60;;;15.80;70.20;;;;;;5061993;28;20420;-73
2022/08/26 03:14:02;;;;;;;56.20;36.55;;;15.80;70.50;;;;;;5066126;28;20020;-74
2022/08/26 03:16:36;;;;;;;33.28;20.73;;;15.80;70.60;;;;;;5063291;28;20480;-74
2022/08/26 03:19:05;;;;;;;16.60;10.40;;;15.80;70.60;;;;;;5068965;28;20040;-75
2022/08/26 03:21:32;;;;;;;10.75;5.45;;;15.80;69.70;;;;;;5061253;28;20072;-74
2022/08/26 03:23:58;;;;;;;11.20;4.50;;;15.80;69.80;;;;;;5063051;28;20017;-75
2022/08/26 03:26:26;;;;;;;11.75;3.25;;;15.70;69.50;;;;;;5060571;28;20025;-75
2022/08/26 03:31:37;;;;;;;6.83;2.90;;;15.70;68.80;;;;;;5062868;28;20071;-72
2022/08/26 03:34:03;;;;;;;5.70;2.35;;;15.70;68.50;;;;;;5065179;28;20366;-72
2022/08/26 03:36:30;;;;;;;8.52;2.60;;;15.60;68.40;;;;;;5067924;28;20043;-72
2022/08/26 03:38:57;;;;;;;19.05;3.53;;;15.60;68.40;;;;;;5065339;28;20479;-77
2022/08/26 03:41:23;;;;;;;13.73;2.00;;;15.60;68.30;;;;;;5063265;28;20097;-73
2022/08/26 03:43:50;;;;;;;12.48;2.83;;;15.50;68.10;;;;;;5063272;28;20021;-73
2022/08/26 03:46:19;;;;;;;11.15;2.00;;;15.50;68.30;;;;;;5060767;28;20024;-72
2022/08/26 03:48:46;;;;;;;14.15;1.92;;;15.50;68.30;;;;;;5065488;28;20029;-73
2022/08/26 03:51:15;;;;;;;7.63;2.22;;;15.50;68.30;;;;;;5062209;28;20024;-72
2022/08/26 03:53:41;;;;;;;9.43;1.77;;;15.50;68.20;;;;;;5061622;28;20037;-72
2022/08/26 03:56:08;;;;;;;7.53;2.67;;;15.50;68.30;;;;;;5061853;28;20020;-72
2022/08/26 03:58:36;;;;;;;5.82;1.80;;;15.50;68.10;;;;;;5066598;28;20391;-72
2022/08/26 04:01:03;;;;;;;9.90;3.25;;;15.40;68.10;;;;;;5067853;28;20077;-73
2022/08/26 04:06:16;;;;;;;4.88;2.10;;;15.50;68.10;;;;;;5064503;28;20094;-70
2022/08/26 04:08:43;;;;;;;5.38;1.63;;;15.50;68.10;;;;;;5069861;28;20017;-72
2022/08/26 04:11:19;;;;;;;12.63;1.70;;;15.50;68.20;;;;;;5067653;28;20020;-70
2022/08/26 04:13:46;;;;;;;11.02;3.22;;;15.50;68.20;;;;;;5067837;28;20468;-71
2022/08/26 04:16:14;;;;;;;6.07;1.48;;;15.50;68.20;;;;;;5063775;28;20476;-72
2022/08/26 04:18:41;;;;;;;8.15;2.60;;;15.50;69.70;;;;;;5069349;28;20027;-71
2022/08/26 04:21:08;;;;;;;10.13;3.00;;;15.50;69.40;;;;;;5065065;28;20059;-70
2022/08/26 04:23:35;;;;;;;21.70;13.30;;;15.60;69.60;;;;;;5069377;28;20016;-71
2022/08/26 04:26:02;;;;;;;21.75;11.27;;;15.60;69.90;;;;;;5064538;28;20020;-69
2022/08/26 04:28:29;;;;;;;20.90;12.05;;;15.60;69.70;;;;;;5061326;28;20500;-69
2022/08/26 04:30:56;;;;;;;24.08;9.07;;;15.60;69.60;;;;;;5068015;28;20502;-73
2022/08/26 04:33:23;;;;;;;15.48;5.60;;;15.60;69.20;;;;;;5069297;28;20023;-69
2022/08/26 04:35:57;;;;;;;6.35;4.20;;;15.60;69.10;;;;;;5069434;28;20020;-71
2022/08/26 04:38:24;;;;;;;13.18;3.80;;;15.60;68.90;;;;;;5061384;28;20032;-68
2022/08/26 04:40:50;;;;;;;9.05;2.67;;;15.60;68.80;;;;;;5069895;28;20055;-71
2022/08/26 04:43:17;;;;;;;9.55;1.95;;;15.60;68.80;;;;;;5066610;28;20468;-68
2022/08/26 04:45:43;;;;;;;3.47;1.48;;;15.60;68.70;;;;;;5063915;28;20506;-68
2022/08/26 04:48:10;;;;;;;9.95;2.20;;;15.60;69.00;;;;;;5067729;28;20387;-68
2022/08/26 04:50:36;;;;;;;11.15;1.80;;;15.60;69.30;;;;;;5067201;28;20023;-69
2022/08/26 04:53:43;;;;;;;14.05;1.77;;;15.60;69.60;;;;;;5063106;28;20025;-70
2022/08/26 04:56:49;;;;;;;4.45;1.52;;;15.60;69.60;;;;;;5065447;28;20584;-70
2022/08/26 04:59:55;;;;;;;8.80;2.25;;;15.60;69.80;;;;;;5067645;28;20464;-70
2022/08/26 05:03:01;;;;;;;7.93;1.67;;;15.60;69.80;;;;;;5065797;28;20020;-70
2022/08/26 05:06:07;;;;;;;5.60;1.98;;;15.60;69.80;;;;;;5062588;28;20458;-71
2022/08/26 05:09:14;;;;;;;8.20;1.95;;;15.60;69.80;;;;;;5063212;28;20029;-69
2022/08/26 05:12:20;;;;;;;11.90;2.33;;;15.70;69.90;;;;;;5063371;28;20032;-72
2022/08/26 05:15:26;;;;;;;6.47;1.90;;;15.70;69.80;;;;;;5066152;28;20021;-72
2022/08/26 05:18:32;;;;;;;12.40;3.90;;;15.70;69.80;;;;;;5068277;28;20111;-69
2022/08/26 05:21:39;;;;;;;10.65;2.17;;;15.70;70.00;;;;;;5064155;28;20049;-70
2022/08/26 05:24:45;;;;;;;7.70;1.73;;;15.70;70.10;;;;;;5064547;28;20112;-70
2022/08/26 05:27:51;;;;;;;7.88;3.00;;;15.70;70.20;;;;;;5063377;28;20036;-70
2022/08/26 05:30:57;;;;;;;8.10;2.53;;;15.70;70.10;;;;;;5070380;28;20399;-70
2022/08/26 05:34:03;;;;;;;8.35;2.00;;;15.70;70.10;;;;;;5065218;28;20032;-70
2022/08/26 05:37:09;;;;;;;4.85;1.40;;;15.70;70.10;;;;;;5064107;28;20438;-70
2022/08/26 05:40:15;;;;;;;7.28;2.38;;;15.70;70.10;;;;;;5066532;28;20044;-70
2022/08/26 05:43:21;;;;;;;9.43;1.92;;;15.80;70.10;;;;;;5060099;28;20024;-68
2022/08/26 05:46:28;;;;;;;6.40;2.13;;;15.80;70.40;;;;;;5068403;28;20487;-69
2022/08/26 05:49:34;;;;;;;4.97;1.90;;;15.80;70.50;;;;;;5067588;28;20539;-69
2022/08/26 05:52:40;;;;;;;7.78;2.50;;;15.80;70.60;;;;;;5062133;28;20511;-69
2022/08/26 05:55:46;;;;;;;6.65;2.25;;;15.80;70.40;;;;;;5071152;28;20099;-70
2022/08/26 05:58:52;;;;;;;11.45;3.55;;;15.80;70.20;;;;;;5069513;28;20021;-72
2022/08/26 06:01:58;;;;;;;9.80;3.00;;;15.80;70.40;;;;;;5063932;28;20032;-72
2022/08/26 06:05:05;;;;;;;6.82;2.95;;;15.80;70.70;;;;;;5066177;28;20023;-69
2022/08/26 06:11:15;;;;;;;7.90;2.78;;;15.80;71.60;;;;;;5067059;28;19914;-72
2022/08/26 06:14:21;;;;;;;11.30;3.05;;;15.80;72.00;;;;;;5058947;28;20020;-72
2022/08/26 06:17:08;;;;;;;;;;;15.80;72.30;;;;;;5064095;28;20024;-71
2022/08/26 06:20:14;;;;;;;7.13;3.33;;;15.80;72.50;;;;;;5066363;28;19919;-70
2022/08/26 06:26:44;;;;;;;11.50;3.25;;;15.80;72.70;;;;;;5066551;28;20043;-72
2022/08/26 06:29:51;;;;;;;10.20;2.90;;;15.80;72.70;;;;;;5065753;28;20031;-71
2022/08/26 06:32:57;;;;;;;8.45;3.05;;;15.80;72.60;;;;;;5061923;28;20440;-72
2022/08/26 06:36:03;;;;;;;11.73;4.03;;;15.90;72.70;;;;;;5065438;28;20026;-72
2022/08/26 06:39:09;;;;;;;10.40;2.55;;;15.90;72.60;;;;;;5059766;28;20025;-71
2022/08/26 06:42:15;;;;;;;6.15;2.30;;;15.90;72.60;;;;;;5065557;28;20032;-71
2022/08/26 06:45:21;;;;;;;3.88;1.67;;;15.90;72.70;;;;;;5061680;28;20027;-71
2022/08/26 06:48:27;;;;;;;8.90;2.53;;;16.00;72.40;;;;;;5063665;28;20032;-72
2022/08/26 06:51:33;;;;;;;17.05;3.15;;;16.00;72.20;;;;;;5062399;28;20024;-68
2022/08/26 06:54:41;;;;;;;6.28;1.83;;;16.00;72.00;;;;;;5064445;28;20024;-72
2022/08/26 06:57:48;;;;;;;6.60;2.22;;;16.00;71.60;;;;;;5065501;28;20017;-69
2022/08/26 07:00:54;;;;;;;10.93;2.28;;;16.10;71.30;;;;;;5063003;28;20024;-69
2022/08/26 07:04:01;;;;;;;3.42;1.38;;;16.10;71.60;;;;;;5067268;28;20040;-72
2022/08/26 07:07:07;;;;;;;7.10;1.67;;;16.20;70.70;;;;;;5058908;28;20016;-71
2022/08/26 07:10:14;;;;;;;9.93;2.60;;;16.20;70.40;;;;;;5060060;28;20035;-70
2022/08/26 07:13:22;;;;;;;8.27;1.98;;;16.20;70.20;;;;;;5061330;28;20032;-71
2022/08/26 07:16:28;;;;;;;11.65;3.67;;;16.20;70.20;;;;;;5062092;28;20027;-72
2022/08/26 07:18:56;;;;;;;12.60;3.28;;;16.20;70.50;;;;;;5064623;28;20058;-71
2022/08/26 07:21:24;;;;;;;5.45;1.98;;;16.30;70.20;;;;;;5063632;28;20084;-71
2022/08/26 07:23:52;;;;;;;6.40;2.30;;;16.30;69.80;;;;;;5063432;28;20067;-71
2022/08/26 07:26:24;;;;;;;5.30;1.77;;;16.20;69.50;;;;;;5063755;28;20037;-71
2022/08/26 07:28:52;;;;;;;12.82;2.08;;;16.30;69.40;;;;;;5062161;28;20040;-72
2022/08/26 07:31:22;;;;;;;9.77;2.58;;;16.30;69.70;;;;;;5062068;28;20486;-71
2022/08/26 07:33:48;;;;;;;6.05;2.75;;;16.30;70.10;;;;;;5059959;28;20017;-71
2022/08/26 07:36:18;;;;;;;20.15;4.18;;;16.40;70.30;;;;;;5068232;28;20021;-71
2022/08/26 07:38:46;;;;;;;14.60;3.33;;;16.40;70.70;;;;;;5065099;28;20472;-71
2022/08/26 07:41:16;;;;;;;12.38;2.00;;;16.40;69.40;;;;;;5060469;28;20052;-71
2022/08/26 07:43:44;;;;;;;13.13;2.65;;;16.40;69.40;;;;;;5067313;28;20012;-71
2022/08/26 07:46:17;;;;;;;17.63;2.97;;;16.40;69.40;;;;;;5061162;28;20048;-71
2022/08/26 07:48:45;;;;;;;7.80;1.67;;;16.40;69.00;;;;;;5069912;28;20577;-71
2022/08/26 07:51:13;;;;;;;16.23;2.60;;;16.50;69.00;;;;;;5064291;28;20025;-71
2022/08/26 07:53:40;;;;;;;11.93;4.22;;;16.50;68.90;;;;;;5056524;28;20022;-71
2022/08/26 07:56:07;;;;;;;2.83;1.80;;;16.50;68.80;;;;;;5060263;28;20032;-71
2022/08/26 07:58:34;;;;;;;5.18;1.80;;;16.50;68.80;;;;;;5059729;28;20028;-71
2022/08/26 08:01:00;;;;;;;7.63;2.78;;;16.50;68.70;;;;;;5063772;28;20031;-71
2022/08/26 08:03:27;;;;;;;7.40;2.40;;;16.50;68.60;;;;;;5058994;28;20047;-71
2022/08/26 08:05:53;;;;;;;13.60;3.05;;;16.60;68.80;;;;;;5058786;28;20033;-71
2022/08/26 08:08:20;;;;;;;5.35;1.63;;;16.60;69.30;;;;;;5064625;28;20036;-71
2022/08/26 08:10:47;;;;;;;11.20;2.50;;;16.60;69.60;;;;;;5062207;28;20015;-71
2022/08/26 08:13:13;;;;;;;5.57;1.83;;;16.70;70.20;;;;;;5061143;28;20472;-70
2022/08/26 08:15:40;;;;;;;6.18;1.90;;;16.70;69.80;;;;;;5064387;28;20029;-71
2022/08/26 08:18:07;;;;;;;5.88;2.40;;;16.70;69.00;;;;;;5065389;28;20024;-72
2022/08/26 08:20:34;;;;;;;5.90;1.60;;;16.80;69.50;;;;;;5065877;28;20073;-71
2022/08/26 08:23:03;;;;;;;11.35;1.98;;;16.80;69.80;;;;;;5064503;28;20029;-70
2022/08/26 08:25:31;;;;;;;14.93;2.75;;;16.80;70.60;;;;;;5065152;28;20109;-71
2022/08/26 08:27:58;;;;;;;11.20;2.33;;;16.90;70.20;;;;;;5061945;28;20127;-71
2022/08/26 08:30:25;;;;;;;8.05;2.10;;;16.90;69.50;;;;;;5067603;28;20031;-71
2022/08/26 08:32:52;;;;;;;7.00;2.00;;;16.90;68.80;;;;;;5058940;28;20023;-71
2022/08/26 08:35:21;;;;;;;11.45;2.25;;;17.00;67.90;;;;;;5062538;28;20078;-70
2022/08/26 08:37:52;;;;;;;5.43;1.75;;;17.00;67.80;;;;;;5064607;28;20024;-71
2022/08/26 08:40:20;;;;;;;8.77;2.17;;;17.00;67.70;;;;;;5065325;28;20046;-71
2022/08/26 08:42:59;;;;;;;6.72;3.08;;;17.00;66.60;;;;;;5068085;28;20078;-71
2022/08/26 08:45:51;;;;;;;14.40;2.25;;;17.10;66.10;;;;;;5070328;28;20032;-71
2022/08/26 08:48:25;;;;;;;9.73;2.13;;;17.10;66.90;;;;;;5067811;28;20028;-71
2022/08/26 08:51:33;;;;;;;12.75;1.80;;;17.20;67.10;;;;;;5065863;28;20488;-71
2022/08/26 08:54:01;;;;;;;9.88;1.40;;;17.20;66.60;;;;;;5064431;28;20071;-70
2022/08/26 08:56:36;;;;;;;13.07;2.63;;;17.30;65.90;;;;;;5068548;28;20064;-72
2022/08/26 08:59:15;;;;;;;7.97;2.50;;;17.30;65.10;;;;;;5064637;28;20123;-71
2022/08/26 09:01:51;;;;;;;9.85;1.83;;;17.40;64.30;;;;;;5063357;28;20028;-71
2022/08/26 09:04:42;;;;;;;11.43;1.38;;;17.50;63.30;;;;;;5069021;28;20509;-71
2022/08/26 09:07:16;;;;;;;6.93;2.83;;;17.60;63.20;;;;;;5064546;28;20391;-71
2022/08/26 09:10:19;;;;;;;7.47;1.50;;;17.60;62.90;;;;;;5066719;28;20037;-70
2022/08/26 09:12:46;;;;;;;8.90;2.47;;;17.60;63.10;;;;;;5059947;28;20047;-72
2022/08/26 09:15:42;;;;;;;8.43;1.45;;;17.70;63.10;;;;;;5069382;28;20030;-71
2022/08/26 09:18:33;;;;;;;17.75;3.08;;;17.60;62.50;;;;;;5060864;28;20058;-71
2022/08/26 09:21:03;;;;;;;11.00;2.00;;;17.60;62.70;;;;;;5065675;28;20052;-71
2022/08/26 09:23:32;;;;;;;11.02;2.85;;;17.60;63.90;;;;;;5068300;28;20035;-71
2022/08/26 09:26:19;;;;;;;10.77;1.40;;;17.60;64.60;;;;;;5061525;28;20048;-70
2022/08/26 09:28:54;;;;;;;17.77;1.90;;;17.70;65.30;;;;;;5070187;28;20038;-71
2022/08/26 09:31:22;;;;;;;2.75;1.45;;;17.70;66.10;;;;;;5065179;28;20035;-70
2022/08/26 09:34:10;;;;;;;14.48;2.05;;;17.70;65.40;;;;;;5064310;28;20028;-70
2022/08/26 09:36:52;;;;;;;16.45;2.40;;;17.70;65.50;;;;;;5066902;28;20024;-71
2022/08/26 09:39:27;;;;;;;9.38;1.63;;;17.80;65.10;;;;;;5067258;28;20380;-71
2022/08/26 09:42:05;;;;;;;7.93;1.60;;;17.80;64.70;;;;;;5061708;28;20041;-70
2022/08/26 09:44:32;;;;;;;12.23;2.38;;;17.70;64.70;;;;;;5068278;28;20060;-71
2022/08/26 09:47:03;;;;;;;6.95;2.17;;;17.80;64.70;;;;;;5064316;28;20032;-70
2022/08/26 09:49:38;;;;;;;8.23;1.90;;;17.80;63.80;;;;;;5062739;28;20025;-70
2022/08/26 09:52:12;;;;;;;9.05;1.45;;;17.80;63.40;;;;;;5060989;28;20112;-71
2022/08/26 09:54:40;;;;;;;4.43;1.35;;;17.80;63.10;;;;;;5061775;28;20028;-70
2022/08/26 09:57:17;;;;;;;4.90;1.85;;;17.80;62.40;;;;;;5061559;28;20021;-71
2022/08/26 09:59:44;;;;;;;8.45;1.05;;;17.80;62.30;;;;;;5064503;28;20090;-71
2022/08/26 10:02:25;;;;;;;3.03;0.90;;;17.90;62.10;;;;;;5062611;28;20487;-71
2022/08/26 10:04:54;;;;;;;6.13;1.02;;;17.80;62.20;;;;;;5062748;28;20036;-69
2022/08/26 10:07:39;;;;;;;2.80;1.05;;;17.90;62.40;;;;;;5066123;28;20029;-71
2022/08/26 10:10:11;;;;;;;11.00;1.50;;;17.90;62.50;;;;;;5065407;28;20421;-71
2022/08/26 10:12:47;;;;;;;8.95;1.30;;;17.90;62.50;;;;;;5065253;28;20029;-71
2022/08/26 10:15:15;;;;;;;5.93;1.35;;;17.90;62.50;;;;;;5068132;28;22141;-71
2022/08/26 10:17:44;;;;;;;7.30;2.05;;;17.90;62.50;;;;;;5060081;28;20345;-70
2022/08/26 10:20:21;;;;;;;7.60;1.13;;;18.00;62.60;;;;;;5062918;28;20043;-70
2022/08/26 10:23:13;;;;;;;3.17;0.85;;;18.00;62.40;;;;;;5065647;28;20098;-70
2022/08/26 10:26:01;;;;;;;7.20;1.80;;;18.00;62.10;;;;;;5068208;28;20028;-70
2022/08/26 10:28:30;;;;;;;2.75;1.42;;;18.00;62.00;;;;;;5062758;28;20072;-71
2022/08/26 10:31:48;;;;;;;6.63;1.20;;;18.00;62.10;;;;;;5065113;28;20507;-71
2022/08/26 10:34:17;;;;;;;8.68;1.65;;;18.10;62.20;;;;;;5050043;28;20032;-70
2022/08/26 10:37:10;;;;;;;6.75;1.23;;;18.10;62.90;;;;;;5058614;28;20048;-70
2022/08/26 10:39:56;;;;;;;10.27;2.15;;;18.20;62.90;;;;;;5067484;28;20099;-70
2022/08/26 10:42:41;;;;;;;4.03;1.17;;;18.20;62.60;;;;;;5061514;28;20020;-70
2022/08/26 10:45:18;;;;;;;4.88;1.40;;;18.30;62.70;;;;;;5062011;28;20043;-70
2022/08/26 10:47:54;;;;;;;9.32;1.27;;;18.30;61.90;;;;;;5063046;28;20043;-71
2022/08/26 10:50:35;;;;;;;9.23;1.10;;;18.30;61.80;;;;;;5064265;28;20133;-70
2022/08/26 10:53:19;;;;;;;8.23;1.67;;;18.30;61.50;;;;;;5065556;28;20679;-70
2022/08/26 10:56:06;;;;;;;2.58;1.00;;;18.30;61.50;;;;;;5063973;28;20032;-71
2022/08/26 10:58:45;;;;;;;8.43;1.30;;;18.30;61.80;;;;;;5062690;28;20375;-71
2022/08/26 11:01:45;;;;;;;6.30;1.80;;;18.30;61.90;;;;;;5063792;28;20017;-71
2022/08/26 11:04:20;;;;;;;6.68;1.10;;;18.30;61.80;;;;;;5061400;28;20024;-71
2022/08/26 11:06:47;;;;;;;8.15;1.85;;;18.40;61.60;;;;;;5064280;28;20084;-70
2022/08/26 11:09:46;;;;;;;5.10;1.50;;;18.40;61.40;;;;;;5066143;28;20070;-71
2022/08/26 11:12:37;;;;;;;5.28;1.33;;;18.50;61.30;;;;;;5050719;28;20025;-71
2022/08/26 11:15:07;;;;;;;6.40;1.95;;;18.50;61.50;;;;;;5064777;28;20392;-71
2022/08/26 11:17:46;;;;;;;4.38;1.20;;;18.50;61.10;;;;;;5060919;28;20060;-71
2022/08/26 11:20:28;;;;;;;11.32;2.00;;;18.50;60.90;;;;;;5062140;28;20040;-70
2022/08/26 11:22:55;;;;;;;5.13;1.40;;;18.60;60.30;;;;;;5065275;28;20086;-70
2022/08/26 11:25:25;;;;;;;12.55;2.03;;;18.60;59.90;;;;;;5066983;28;20036;-71
2022/08/26 11:27:56;;;;;;;3.15;1.13;;;18.50;59.60;;;;;;5064348;28;20504;-70
2022/08/26 11:30:23;;;;;;;5.18;1.45;;;18.60;59.90;;;;;;5061985;28;20016;-71
2022/08/26 11:32:53;;;;;;;7.90;1.83;;;18.60;59.90;;;;;;5062614;28;20070;-70
2022/08/26 11:35:20;;;;;;;9.30;1.27;;;18.60;59.10;;;;;;5064183;28;20052;-71
2022/08/26 11:37:51;;;;;;;8.07;1.30;;;18.60;59.10;;;;;;5061017;28;20021;-70
2022/08/26 11:40:21;;;;;;;3.88;1.48;;;18.60;59.10;;;;;;5060771;28;20387;-71
2022/08/26 11:42:59;;;;;;;4.80;1.50;;;18.60;59.20;;;;;;5061712;28;20024;-71
2022/08/26 11:45:38;;;;;;;7.15;1.40;;;18.70;58.90;;;;;;5062465;28;20035;-71
2022/08/26 11:48:32;;;;;;;5.07;1.75;;;18.70;58.70;;;;;;5060062;28;20576;-71
2022/08/26 11:51:20;;;;;;;6.70;1.48;;;18.70;58.30;;;;;;5058157;28;20122;-70
2022/08/26 11:53:47;;;;;;;8.30;1.77;;;18.70;58.70;;;;;;5061938;28;20063;-71
2022/08/26 11:56:33;;;;;;;22.33;2.40;;;18.70;59.10;;;;;;5064121;28;20016;-70
2022/08/26 11:59:01;;;;;;;;;;;18.80;59.40;;;;;;5055565;28;20064;-70
2022/08/26 12:01:31;;;;;;;19.85;4.22;;;18.90;59.80;;;;;;5063565;28;20317;-70
2022/08/26 12:03:58;;;;;;;6.38;1.58;;;19.00;59.30;;;;;;5054851;28;20025;-71
2022/08/26 12:06:49;;;;;;;4.97;1.25;;;19.00;58.90;;;;;;5060752;28;20044;-70
2022/08/26 12:09:33;;;;;;;2.20;1.45;;;19.20;58.80;;;;;;5061069;28;20078;-71
2022/08/26 12:12:14;;;;;;;4.32;0.90;;;19.30;58.30;;;;;;5062701;28;20024;-70
2022/08/26 12:14:42;;;;;;;6.88;1.58;;;19.30;58.30;;;;;;5066027;28;20020;-72
2022/08/26 12:17:26;;;;;;;3.47;1.40;;;19.40;58.20;;;;;;5060285;28;20047;-71
2022/08/26 12:19:52;;;;;;;6.22;1.20;;;19.40;58.10;;;;;;5067729;28;20024;-71
2022/08/26 12:22:24;;;;;;;2.67;0.90;;;19.50;57.90;;;;;;5067990;28;20456;-71
2022/08/26 12:25:03;;;;;;;4.47;1.05;;;19.50;57.00;;;;;;5059941;28;20424;-70
2022/08/26 12:27:39;;;;;;;7.25;1.75;;;19.60;57.10;;;;;;5067981;28;20065;-71
2022/08/26 12:30:22;;;;;;;4.63;1.15;;;19.60;57.20;;;;;;5062088;28;20034;-70
2022/08/26 12:32:51;;;;;;;3.60;1.38;;;19.60;57.50;;;;;;5064699;28;20107;-70
2022/08/26 12:35:20;;;;;;;5.63;1.77;;;19.70;57.80;;;;;;5066784;28;20009;-70
2022/08/26 12:37:52;;;;;;;3.60;2.10;;;19.70;57.80;;;;;;5065978;28;20450;-71
2022/08/26 12:40:32;;;;;;;9.48;1.95;;;19.60;57.70;;;;;;5067378;28;20432;-71
2022/08/26 12:43:00;;;;;;;7.47;2.28;;;19.60;58.00;;;;;;5064479;28;20028;-71
2022/08/26 12:46:03;;;;;;;5.93;1.50;;;19.60;58.40;;;;;;5064372;28;20045;-71
2022/08/26 12:48:37;;;;;;;6.72;1.92;;;19.50;58.60;;;;;;5061619;28;20044;-71
2022/08/26 12:51:08;;;;;;;5.88;2.28;;;19.40;58.10;;;;;;5066848;28;20020;-71
2022/08/26 12:53:42;;;;;;;8.48;1.35;;;19.40;58.50;;;;;;5067486;28;20430;-71
2022/08/26 12:56:26;;;;;;;6.72;1.38;;;19.30;58.60;;;;;;5061579;28;20364;-71
2022/08/26 12:59:20;;;;;;;5.05;1.38;;;19.30;58.30;;;;;;5057563;28;20514;-71
2022/08/26 13:01:48;;;;;;;6.32;1.08;;;19.30;58.50;;;;;;5066745;28;20043;-71
2022/08/26 13:04:33;;;;;;;3.55;1.25;;;19.30;57.80;;;;;;5067453;28;20107;-71
2022/08/26 13:07:15;;;;;;;3.35;0.77;;;19.40;57.70;;;;;;5065008;28;20059;-70
2022/08/26 13:09:41;;;;;;;3.33;0.70;;;19.40;57.50;;;;;;5068141;28;20028;-70
2022/08/26 13:12:10;;;;;;;6.57;0.73;;;19.40;57.10;;;;;;5065587;28;20021;-71
2022/08/26 13:14:36;;;;;;;7.35;1.20;;;19.40;57.10;;;;;;5063589;28;20021;-70
2022/08/26 13:17:03;;;;;;;3.67;1.00;;;19.40;56.60;;;;;;5061029;28;20016;-70
2022/08/26 13:19:30;;;;;;;3.42;0.98;;;19.40;56.50;;;;;;5066392;28;20078;-71
2022/08/26 13:21:59;;;;;;;3.78;0.68;;;19.30;56.50;;;;;;5070307;28;20484;-71
2022/08/26 13:24:38;;;;;;;3.15;0.90;;;19.30;56.50;;;;;;5063421;28;20480;-71
2022/08/26 13:27:07;;;;;;;9.50;1.38;;;19.30;56.50;;;;;;5067988;28;20560;-70
2022/08/26 13:29:34;;;;;;;4.38;1.95;;;19.30;57.60;;;;;;5066152;28;20032;-71
2022/08/26 13:32:02;;;;;;;2.97;0.52;;;19.30;57.90;;;;;;5065063;28;20016;-69
2022/08/26 13:34:29;;;;;;;1.88;0.90;;;19.30;57.20;;;;;;5063239;28;20033;-71
2022/08/26 13:36:57;;;;;;;3.95;0.88;;;19.30;56.70;;;;;;5065474;28;20025;-71
2022/08/26 13:39:24;;;;;;;3.55;1.10;;;19.30;56.20;;;;;;5068955;28;20376;-70
2022/08/26 13:41:51;;;;;;;6.72;2.17;;;19.30;56.00;;;;;;5063396;28;20063;-70
2022/08/26 13:44:18;;;;;;;2.50;0.80;;;19.30;56.00;;;;;;5061291;28;20081;-71
2022/08/26 13:46:45;;;;;;;3.95;0.90;;;19.30;55.80;;;;;;5068754;28;20178;-71